North Belle Vernon, Pennsylvania
Current Conditions -  °F | °C
As of 6:53 PM on Monday 20 Oct 2014 (Local Time) from KAGC Reporting Station
Broken Clouds Broken Clouds  
Wind Chill: 55°   Ceiling: 11000
Heat Index: 55°   Visibility: 10mi
Dew Point: 38°   Wind: 7mph
Humidity: 53%   Direction: 190°S
Pressure: 29.89"   Gusts: NA
Location:  40.1536°N, 79.8119°W
Report Text: KAGC 202253Z 19006KT 10SM FEW065 BKN110 13/03 A2989 RMK AO2 SLP128 T01280033
Loading
Personal Weather Stations






























Interactive Weather Map
Tropical Storm Tracking
New forecast layout! Learn more

10-Day Weather Forecast

Advertisements
Track Severe Weather on mobile